WetterOnline ( http://www.wetteronline.de )

Wetter aktuell Friesoythe

Aktuelles Wetter: Friesoythe-Altenoythe (6m)

6-stündlich | Neueste Meldungen
Ortszeit Temperatur Wetter
So, 21.10. 2:00 10.5° C bedeckt
Sa, 20.10. 20:00 12.2° C bedeckt
Sa, 20.10. 14:00 14.7° C leicht bewölkt
Sa, 20.10. 8:00 3.3° C bedeckt
Sa, 20.10. 2:00 2.0° C Nebel
Fr, 19.10. 20:00 9.1° C bewölkt
Fr, 19.10. 14:00 12.3° C bedeckt
Fr, 19.10. 8:00 6.4° C bedeckt
Ortszeit Temperatur Wetter
So, 21.10. 5:30 10.9° C bedeckt
So, 21.10. 5:20 10.9° C bedeckt
So, 21.10. 5:10 10.8° C bedeckt
So, 21.10. 5:00 10.4° C bedeckt
So, 21.10. 4:50 10.4° C bedeckt
So, 21.10. 4:40 10.3° C bedeckt
So, 21.10. 4:30 10.4° C bedeckt
So, 21.10. 4:00 10.4° C bedeckt
So, 21.10. 3:30 10.5° C bedeckt
So, 21.10. 3:00 10.6° C bedeckt
So, 21.10. 2:30 10.4° C bedeckt
Ortszeit Relative Feuchte Sichtweite
So, 21.10. 2:00 90% 8 km
Sa, 20.10. 20:00 80% 22 km
Sa, 20.10. 14:00 62% 35 km
Sa, 20.10. 8:00 96% 24 km
Sa, 20.10. 2:00 96% 0.3 km
Fr, 19.10. 20:00 74% 45 km
Fr, 19.10. 14:00 60% 40 km
Fr, 19.10. 8:00 95% 26 km
Ortszeit Relative Feuchte Sichtweite
So, 21.10. 5:30 89% 7 km
So, 21.10. 5:20 89% -
So, 21.10. 5:10 90% -
So, 21.10. 5:00 91% 6 km
So, 21.10. 4:50 91% -
So, 21.10. 4:40 91% -
So, 21.10. 4:30 90% 7 km
So, 21.10. 4:00 90% 7 km
So, 21.10. 3:30 90% 7 km
So, 21.10. 3:00 90% 7 km
So, 21.10. 2:30 91% 8 km
Ortszeit Niederschlagsmenge Niederschlagsart
So, 21.10. 2:00 0.0 l/m2 in 6 Std. -
Sa, 20.10. 20:00 0.0 l/m2 in 12 Std. -
Sa, 20.10. 14:00 0.0 l/m2 in 6 Std. -
Sa, 20.10. 8:00 0.0 l/m2 in 12 Std. -
Sa, 20.10. 2:00 0.0 l/m2 in 6 Std. -
Fr, 19.10. 20:00 0.0 l/m2 in 12 Std. -
Fr, 19.10. 14:00 0.0 l/m2 in 6 Std. -
Fr, 19.10. 8:00 0.0 l/m2 in 12 Std. -
Ortszeit Niederschlagsmenge Niederschlagsart
So, 21.10. 5:30 0.0 l/m2 in 1 Std. -
So, 21.10. 5:20 keine Meldung -
So, 21.10. 5:10 keine Meldung -
So, 21.10. 5:00 0.0 l/m2 in 1 Std. -
So, 21.10. 4:50 keine Meldung -
So, 21.10. 4:40 keine Meldung -
So, 21.10. 4:30 0.0 l/m2 in 1 Std. -
So, 21.10. 4:00 0.0 l/m2 in 1 Std. -
So, 21.10. 3:30 0.0 l/m2 in 1 Std. -
So, 21.10. 3:00 0.0 l/m2 in 1 Std. -
So, 21.10. 2:30 0.0 l/m2 in 1 Std. -
Ortszeit Stärke Spitze Richtung
km/h Bft. km/h Grad Sektor
So, 21.10. 2:00 6 1 17 230° SW
Sa, 20.10. 20:00 7 2 29 260° W
Sa, 20.10. 14:00 18 3 29 280° W
Sa, 20.10. 8:00 6 1 9 260° W
Sa, 20.10. 2:00 4 1 7 280° W
Fr, 19.10. 20:00 6 1 17 30° NO
Fr, 19.10. 14:00 4 1 14 60° NO
Fr, 19.10. 8:00 4 1 7 70° O
Ortszeit Stärke Spitze Richtung
km/h Bft. km/h Grad Sektor
So, 21.10. 5:30 7 2 11 240° SW
So, 21.10. 5:20 7 2 - 240° SW
So, 21.10. 5:10 7 2 - 240° SW
So, 21.10. 5:00 7 2 7 210° SW
So, 21.10. 4:50 7 2 - 210° SW
So, 21.10. 4:40 6 1 - 210° SW
So, 21.10. 4:30 6 1 7 220° SW
So, 21.10. 4:00 7 2 11 210° SW
So, 21.10. 3:30 7 2 11 220° SW
So, 21.10. 3:00 7 2 11 230° SW
So, 21.10. 2:30 4 1 7 240° SW
Ortszeit Untergrenze Bedeckung Gattung
total tief tief mittel hoch
So, 21.10. 2:00 1230 m 8/8 8/8 - - -
Sa, 20.10. 20:00 720 m 8/8 8/8 - - -
Sa, 20.10. 14:00 930 m 4/8 - - - -
Sa, 20.10. 8:00 1290 m 8/8 8/8 - - -
Sa, 20.10. 2:00 - 0/8 0/8 - - -
Fr, 19.10. 20:00 1020 m 8/8 7/8 - - -
Fr, 19.10. 14:00 900 m 8/8 8/8 - - -
Fr, 19.10. 8:00 990 m 8/8 8/8 - - -
Ortszeit Bedeckungsgrad in Achtel und Wolkenuntergrenze
So, 21.10. 5:30 8(1080m)
So, 21.10. 5:20 8(1080m)
So, 21.10. 5:10 8(1110m)
So, 21.10. 5:00 8(1140m)
So, 21.10. 4:50 8(1140m)
So, 21.10. 4:40 8(1170m)
So, 21.10. 4:30 8(1170m)
So, 21.10. 4:00 8(1200m)
So, 21.10. 3:30 8(1230m)
So, 21.10. 3:00 8(1230m)
So, 21.10. 2:30 8(1260m)
Ortszeit Luftdruck NN (hPa) Tendenz (hPa in 3 Std.)
So, 21.10. 2:00 1030 - 0,3
Sa, 20.10. 20:00 1030 + 0,5
Sa, 20.10. 14:00 1030 + 0,1
Sa, 20.10. 8:00 1030 + 1,2
Sa, 20.10. 2:00 1028 + 0,7
Fr, 19.10. 20:00 1027 + 1,1
Fr, 19.10. 14:00 1027 - 0,8
Fr, 19.10. 8:00 1027 + 0,2
Ortszeit Luftdruck NN (hPa) Tendenz (hPa in 3 Std.)
So, 21.10. 5:30 1029 - 0,7
So, 21.10. 5:20 1029 keine Meldung
So, 21.10. 5:10 1029 keine Meldung
So, 21.10. 5:00 1029 - 0,8
So, 21.10. 4:50 1029 keine Meldung
So, 21.10. 4:40 1029 keine Meldung
So, 21.10. 4:30 1029 - 0,8
So, 21.10. 4:00 1029 - 0,6
So, 21.10. 3:30 1029 - 0,7
So, 21.10. 3:00 1029 - 0,6
So, 21.10. 2:30 1030 - 0,3
Ortszeit Schneehöhe (cm)
So, 21.10. 2:00 0
Sa, 20.10. 20:00 0
Sa, 20.10. 14:00 0
Sa, 20.10. 8:00 0
Sa, 20.10. 2:00 0
Fr, 19.10. 20:00 0
Fr, 19.10. 14:00 0
Fr, 19.10. 8:00 0
Ortszeit Schneehöhe (cm)
So, 21.10. 5:30 0
So, 21.10. 5:20 0
So, 21.10. 5:10 0
So, 21.10. 5:00 0
So, 21.10. 4:50 0
So, 21.10. 4:40 0
So, 21.10. 4:30 0
So, 21.10. 4:00 0
So, 21.10. 3:30 0
So, 21.10. 3:00 0
So, 21.10. 2:30 0
Link zu dieser Seite / Seite empfehlen

Das Wetter in ...